Time;durP1;ratioP1;P1;durP2;ratioP2;P2;SDS_P1;SDS_P2;PMS_P1;PMS_P2;Temp;Humidity;BMP_temperature;BMP_pressure;BME280_temperature;BME280_humidity;BME280_pressure;Samples;Min_cycle;Max_cycle;Signal;HPM_P1;HPM_P2
2021/08/08 00:02:53;;;;;;;4.40;0.97;;;;;;;18.52;65.75;97252.31;8314930;28;20201;-69
2021/08/08 00:06:57;;;;;;;6.87;1.37;;;;;;;18.50;65.63;97263.88;8316154;28;20229;-68
2021/08/08 00:11:01;;;;;;;3.10;1.20;;;;;;;18.40;66.18;97276.16;8316346;28;20268;-69
2021/08/08 00:15:04;;;;;;;10.10;1.30;;;;;;;18.36;65.71;97263.28;8316271;28;20224;-69
2021/08/08 00:19:07;;;;;;;2.30;0.90;;;;;;;18.39;66.03;97271.84;8277309;28;1133573;-69
2021/08/08 00:23:12;;;;;;;8.30;1.20;;;;;;;18.45;65.50;97277.41;8317388;28;20208;-69
2021/08/08 00:27:15;;;;;;;5.53;1.20;;;;;;;18.49;65.42;97277.97;8317162;28;20346;-69
2021/08/08 00:31:22;;;;;;;4.70;1.20;;;;;;;18.47;65.29;97272.03;8316515;28;20208;-68
2021/08/08 00:35:26;;;;;;;6.70;1.30;;;;;;;18.40;65.79;97278.75;8317227;28;20268;-69
2021/08/08 00:39:31;;;;;;;3.73;1.20;;;;;;;18.29;65.93;97277.06;8316921;28;20296;-69
2021/08/08 00:43:34;;;;;;;3.40;1.17;;;;;;;18.33;65.64;97274.06;8316719;28;20205;-69
2021/08/08 00:47:37;;;;;;;4.90;1.00;;;;;;;18.32;65.44;97275.00;8316872;28;20236;-69
2021/08/08 00:51:40;;;;;;;5.90;1.20;;;;;;;18.36;65.83;97273.78;8316928;28;20216;-69
2021/08/08 00:55:44;;;;;;;3.83;1.13;;;;;;;18.32;65.93;97277.63;8316755;28;20221;-68
2021/08/08 00:59:47;;;;;;;7.30;1.20;;;;;;;18.02;66.81;97278.50;8316775;28;20205;-69
2021/08/08 01:03:50;;;;;;;3.37;1.10;;;;;;;17.92;67.10;97290.72;8316969;28;20205;-69
2021/08/08 01:07:56;;;;;;;6.63;1.03;;;;;;;18.06;66.39;97281.69;8320098;28;20551;-69
2021/08/08 01:12:01;;;;;;;3.63;1.10;;;;;;;18.26;65.62;97285.19;8322937;28;20205;-69
2021/08/08 01:16:04;;;;;;;4.50;1.00;;;;;;;18.13;65.81;97281.00;8323147;28;20213;-70
2021/08/08 01:20:09;;;;;;;8.03;1.30;;;;;;;18.10;66.17;97283.88;8323207;28;20522;-70
2021/08/08 01:24:13;;;;;;;5.60;1.10;;;;;;;18.15;65.74;97292.19;8323116;28;20205;-70
2021/08/08 01:28:17;;;;;;;6.97;1.20;;;;;;;18.14;65.73;97298.41;8322794;28;20229;-70
2021/08/08 01:32:20;;;;;;;2.77;1.13;;;;;;;18.12;65.85;97296.88;8322946;28;20201;-70
2021/08/08 01:36:23;;;;;;;3.30;1.10;;;;;;;18.04;66.08;97297.53;8322699;28;20208;-70
2021/08/08 01:40:31;;;;;;;2.90;1.10;;;;;;;18.10;65.85;97290.94;8322621;28;20201;-70
2021/08/08 01:44:37;;;;;;;4.10;1.10;;;;;;;18.12;65.52;97302.09;8322472;28;20201;-70
2021/08/08 01:48:43;;;;;;;4.27;1.10;;;;;;;18.00;66.16;97298.75;8322455;28;20259;-70
2021/08/08 01:52:46;;;;;;;4.73;1.30;;;;;;;18.04;65.56;97305.38;8322228;28;20232;-70
2021/08/08 01:56:51;;;;;;;4.97;1.20;;;;;;;17.90;66.34;97303.13;8289464;28;20237;-70
2021/08/08 02:00:55;;;;;;;4.67;1.10;;;;;;;18.01;65.91;97310.03;8289437;28;20205;-70
2021/08/08 02:04:58;;;;;;;6.00;1.10;;;;;;;18.01;65.86;97312.66;8289355;28;20209;-70
2021/08/08 02:09:01;;;;;;;8.57;1.40;;;;;;;17.97;65.56;97310.31;8289577;28;20229;-70
2021/08/08 02:13:05;;;;;;;4.63;1.10;;;;;;;17.88;66.08;97318.97;8289104;28;20206;-70
2021/08/08 02:17:08;;;;;;;4.67;1.00;;;;;;;17.97;65.84;97322.56;8288516;28;20509;-70
2021/08/08 02:21:11;;;;;;;7.87;1.10;;;;;;;17.85;66.50;97319.22;8288921;28;20576;-70
2021/08/08 02:25:14;;;;;;;3.70;1.20;;;;;;;17.86;66.11;97331.34;8288717;28;20394;-70
2021/08/08 02:29:19;;;;;;;1.43;1.00;;;;;;;17.90;66.22;97330.13;8288530;28;20233;-70
2021/08/08 02:33:22;;;;;;;5.53;1.03;;;;;;;17.96;65.92;97341.88;8288609;28;20400;-70
2021/08/08 02:37:24;;;;;;;2.50;1.00;;;;;;;18.03;65.50;97347.41;8288341;28;20212;-70
2021/08/08 02:41:27;;;;;;;10.40;1.30;;;;;;;18.04;65.39;97346.47;8288304;28;20210;-70
2021/08/08 02:45:31;;;;;;;6.20;1.03;;;;;;;17.91;65.25;97363.22;8288245;28;20501;-70
2021/08/08 02:49:34;;;;;;;3.83;1.00;;;;;;;17.77;66.56;97353.88;8288099;28;20305;-73
2021/08/08 02:53:37;;;;;;;6.33;1.20;;;;;;;17.91;65.76;97367.63;8294310;28;20197;-72
2021/08/08 02:57:40;;;;;;;6.73;1.17;;;;;;;17.91;65.61;97365.81;8319742;28;20240;-71
2021/08/08 03:01:44;;;;;;;7.17;1.30;;;;;;;17.93;65.27;97371.78;8320197;28;20201;-71
2021/08/08 03:05:47;;;;;;;5.97;1.40;;;;;;;18.06;65.11;97383.84;8319959;28;20205;-71
2021/08/08 03:09:50;;;;;;;3.03;1.10;;;;;;;17.99;65.34;97378.28;8319940;28;20236;-70
2021/08/08 03:13:53;;;;;;;2.20;1.00;;;;;;;17.93;65.44;97391.91;8319637;28;20201;-70
2021/08/08 03:17:57;;;;;;;6.97;0.90;;;;;;;17.73;66.56;97389.13;8319383;28;20400;-71
2021/08/08 03:22:00;;;;;;;2.10;0.93;;;;;;;18.04;65.34;97397.06;8319687;28;20208;-71
2021/08/08 03:26:03;;;;;;;5.07;1.10;;;;;;;17.94;65.45;97399.63;8319396;28;20207;-71
2021/08/08 03:30:07;;;;;;;5.13;1.07;;;;;;;17.87;65.65;97398.47;8318413;28;20236;-70
2021/08/08 03:34:11;;;;;;;8.60;1.37;;;;;;;17.85;65.60;97399.56;8319110;28;20208;-70
2021/08/08 03:38:14;;;;;;;5.93;1.40;;;;;;;17.92;65.42;97405.97;8318916;28;20205;-71
2021/08/08 03:42:17;;;;;;;6.37;1.10;;;;;;;17.89;65.27;97422.75;8318760;28;20201;-71
2021/08/08 03:46:20;;;;;;;5.80;1.10;;;;;;;17.76;65.98;97424.69;8318752;28;20220;-71
2021/08/08 03:50:24;;;;;;;6.70;1.20;;;;;;;17.75;66.00;97423.88;8318564;28;20292;-71
2021/08/08 03:54:27;;;;;;;5.10;1.13;;;;;;;17.90;65.18;97423.59;8331833;28;20223;-71
2021/08/08 03:58:31;;;;;;;6.33;1.53;;;;;;;17.91;65.00;97428.69;8351030;28;20205;-70
2021/08/08 04:02:33;;;;;;;5.03;1.10;;;;;;;17.97;65.07;97446.53;8350873;28;20272;-71
2021/08/08 04:06:38;;;;;;;3.87;0.80;;;;;;;17.96;64.88;97447.50;8351099;28;20462;-71
2021/08/08 04:10:41;;;;;;;5.07;1.20;;;;;;;17.91;65.18;97449.66;8350887;28;20235;-71
2021/08/08 04:14:43;;;;;;;5.03;1.10;;;;;;;17.87;65.33;97457.91;8350890;28;20200;-70
2021/08/08 04:18:46;;;;;;;4.23;1.13;;;;;;;17.95;65.08;97458.09;8350508;28;20240;-70
2021/08/08 04:22:51;;;;;;;7.00;1.10;;;;;;;18.02;64.54;97469.72;8350601;28;20204;-70
2021/08/08 04:26:53;;;;;;;3.67;1.00;;;;;;;17.92;64.79;97469.66;8350525;28;20499;-70
2021/08/08 04:30:56;;;;;;;5.30;1.13;;;;;;;17.91;64.90;97481.09;8349918;28;20224;-70
2021/08/08 04:34:59;;;;;;;7.97;1.50;;;;;;;17.96;64.86;97475.47;8350073;28;20207;-70
2021/08/08 04:39:03;;;;;;;3.83;1.00;;;;;;;17.96;64.93;97480.72;8349970;28;20212;-70
2021/08/08 04:43:06;;;;;;;7.07;1.17;;;;;;;17.97;64.71;97485.00;8349786;28;20200;-70
2021/08/08 04:47:09;;;;;;;4.30;1.33;;;;;;;18.01;64.65;97496.06;8349878;28;20484;-71
2021/08/08 04:51:12;;;;;;;5.47;1.30;;;;;;;18.06;64.51;97494.72;8349607;28;20235;-70
2021/08/08 04:55:17;;;;;;;4.30;1.30;;;;;;;18.07;64.73;97509.50;8329507;28;20221;-70
2021/08/08 04:59:20;;;;;;;5.83;1.00;;;;;;;18.15;64.52;97512.31;8316984;28;20212;-71
2021/08/08 05:03:23;;;;;;;2.40;1.00;;;;;;;18.17;64.51;97518.25;8316913;28;20208;-71
2021/08/08 05:07:25;;;;;;;3.33;1.10;;;;;;;18.29;64.71;97515.56;8316874;28;20538;-71
2021/08/08 05:11:30;;;;;;;5.73;1.10;;;;;;;18.32;64.62;97523.19;8317012;28;20223;-70
2021/08/08 05:15:33;;;;;;;5.20;1.37;;;;;;;18.23;64.72;97526.56;8316580;28;20212;-70
2021/08/08 05:19:35;;;;;;;4.17;1.30;;;;;;;18.16;64.80;97531.47;8316461;28;20233;-70
2021/08/08 05:23:38;;;;;;;5.40;1.00;;;;;;;18.19;64.79;97536.47;8316583;28;20211;-70
2021/08/08 05:27:42;;;;;;;10.73;1.23;;;;;;;18.32;64.38;97538.91;8316519;28;20220;-70
2021/08/08 05:31:45;;;;;;;4.63;1.00;;;;;;;18.27;64.93;97538.47;8316474;28;20205;-71
2021/08/08 05:35:48;;;;;;;3.77;0.97;;;;;;;18.28;64.59;97543.56;8316594;28;20229;-71
2021/08/08 05:39:51;;;;;;;3.83;1.23;;;;;;;18.24;64.94;97539.56;8316401;28;20212;-70
2021/08/08 05:43:56;;;;;;;4.73;1.20;;;;;;;18.15;65.24;97540.31;8316390;28;20201;-70
2021/08/08 05:47:58;;;;;;;3.53;1.30;;;;;;;18.15;65.24;97549.00;8316006;28;20235;-70
2021/08/08 05:52:02;;;;;;;5.63;1.10;;;;;;;18.27;64.99;97556.81;8316614;28;20383;-70
2021/08/08 05:56:05;;;;;;;3.37;1.10;;;;;;;18.30;64.93;97569.66;8321809;28;20532;-70
2021/08/08 06:00:11;;;;;;;7.00;1.20;;;;;;;18.42;64.70;97566.03;8321930;28;20208;-70
2021/08/08 06:04:14;;;;;;;3.43;1.20;;;;;;;18.52;64.13;97564.31;8322028;28;20212;-70
2021/08/08 06:08:17;;;;;;;4.37;1.33;;;;;;;18.60;64.68;97573.31;8321746;28;20232;-70
2021/08/08 06:12:20;;;;;;;4.93;1.20;;;;;;;18.79;63.26;97572.59;8321806;28;20201;-70
2021/08/08 06:16:24;;;;;;;8.67;1.33;;;;;;;18.99;62.66;97570.97;8321613;28;20201;-70
2021/08/08 06:20:27;;;;;;;4.70;1.30;;;;;;;18.93;62.82;97575.75;8321358;28;20240;-70
2021/08/08 06:24:30;;;;;;;4.33;1.30;;;;;;;19.13;62.56;97574.09;8321286;28;20207;-71
2021/08/08 06:28:33;;;;;;;2.57;0.83;;;;;;;19.28;61.81;97571.91;8321238;28;20409;-70
2021/08/08 06:32:37;;;;;;;2.17;0.90;;;;;;;19.32;61.63;97578.59;8321029;28;20422;-70
2021/08/08 06:36:40;;;;;;;3.87;0.97;;;;;;;19.49;61.07;97573.63;8320897;28;20390;-71
2021/08/08 06:40:43;;;;;;;5.90;1.33;;;;;;;19.63;61.27;97575.91;8320801;28;20212;-71
2021/08/08 06:44:46;;;;;;;4.47;1.00;;;;;;;19.76;60.37;97572.22;8320595;28;20200;-71
2021/08/08 06:48:50;;;;;;;5.13;1.10;;;;;;;19.80;60.45;97584.97;8320598;28;20233;-70
2021/08/08 06:52:53;;;;;;;3.03;1.00;;;;;;;20.02;59.64;97580.44;8320375;28;20208;-71
2021/08/08 06:56:55;;;;;;;4.30;0.97;;;;;;;20.16;59.18;97582.63;8317282;28;20214;-72
2021/08/08 07:00:58;;;;;;;3.43;1.20;;;;;;;20.26;59.27;97587.94;8302270;28;20206;-71
2021/08/08 07:05:04;;;;;;;2.47;1.00;;;;;;;20.29;58.66;97590.25;8302854;28;20194;-71
2021/08/08 07:09:07;;;;;;;4.57;1.03;;;;;;;20.45;58.38;97598.44;8289867;28;20234;-71
2021/08/08 07:13:10;;;;;;;7.47;1.10;;;;;;;20.69;57.39;97595.41;8287398;28;20206;-71
2021/08/08 07:17:13;;;;;;;3.17;1.27;;;;;;;20.80;56.86;97604.09;8287183;28;20396;-71
2021/08/08 07:21:17;;;;;;;4.60;1.13;;;;;;;20.48;57.51;97613.09;8287029;28;20244;-71
2021/08/08 07:25:34;;;;;;;6.97;1.10;;;;;;;20.91;55.82;97611.84;8287295;28;20610;-71
2021/08/08 07:29:37;;;;;;;2.80;1.20;;;;;;;20.56;56.28;97618.50;8286724;28;20458;-71
2021/08/08 07:33:40;;;;;;;2.87;1.00;;;;;;;20.87;54.54;97621.00;8286756;28;20209;-71
2021/08/08 07:37:44;;;;;;;4.27;1.00;;;;;;;21.47;54.17;97615.44;8286635;28;20209;-72
2021/08/08 07:41:47;;;;;;;2.93;1.03;;;;;;;21.43;53.94;97612.22;8286436;28;20212;-71
2021/08/08 07:45:50;;;;;;;3.07;1.20;;;;;;;21.50;53.75;97617.78;8286512;28;20212;-70
2021/08/08 07:49:56;;;;;;;2.23;1.10;;;;;;;21.45;54.34;97614.75;8286283;28;20419;-70
2021/08/08 07:54:00;;;;;;;2.43;1.00;;;;;;;22.17;51.17;97614.91;8295357;28;20201;-70
2021/08/08 07:58:03;;;;;;;5.13;1.10;;;;;;;22.54;51.13;97627.13;8318556;28;20519;-71
2021/08/08 08:02:06;;;;;;;3.83;1.00;;;;;;;22.74;50.39;97620.72;8318378;28;20211;-71
2021/08/08 08:06:12;;;;;;;2.43;0.90;;;;;;;22.11;50.89;97631.34;8318081;28;20205;-71
2021/08/08 08:10:17;;;;;;;3.67;0.97;;;;;;;21.80;52.01;97644.81;8318217;28;20232;-71
2021/08/08 08:14:19;;;;;;;3.83;1.20;;;;;;;21.71;52.34;97638.63;8318112;28;20208;-71
2021/08/08 08:18:22;;;;;;;2.53;1.10;;;;;;;22.52;48.86;97640.47;8317531;28;20231;-71
2021/08/08 08:22:25;;;;;;;5.80;1.23;;;;;;;22.79;48.13;97631.66;8317849;28;20208;-71
2021/08/08 08:26:29;;;;;;;3.50;1.30;;;;;;;22.05;49.67;97632.75;8317606;28;20204;-71
2021/08/08 08:30:33;;;;;;;4.37;1.37;;;;;;;21.64;52.28;97634.91;8317234;28;20233;-71
2021/08/08 08:34:36;;;;;;;4.17;1.30;;;;;;;21.86;52.12;97631.06;8317401;28;20205;-71
2021/08/08 08:38:39;;;;;;;5.60;1.20;;;;;;;22.93;49.22;97627.63;8317497;28;20403;-71
2021/08/08 08:42:47;;;;;;;2.73;1.23;;;;;;;23.06;46.87;97621.16;8317329;28;20221;-71
2021/08/08 08:46:51;;;;;;;3.83;1.27;;;;;;;23.00;46.28;97625.19;8317492;28;20209;-71
2021/08/08 08:50:55;;;;;;;3.53;1.03;;;;;;;23.42;46.60;97624.50;8316752;28;20232;-71
2021/08/08 08:54:58;;;;;;;3.07;1.10;;;;;;;23.53;46.17;97634.78;8313672;28;20228;-71
2021/08/08 08:59:03;;;;;;;5.43;1.30;;;;;;;22.94;46.64;97642.50;8316989;28;20201;-71
2021/08/08 09:03:05;;;;;;;5.23;1.60;;;;;;;23.36;45.38;97639.16;8316962;28;20201;-71
2021/08/08 09:07:09;;;;;;;6.27;1.43;;;;;;;23.19;46.26;97640.88;8316836;28;20204;-71
2021/08/08 09:11:12;;;;;;;4.00;1.20;;;;;;;23.92;43.64;97636.13;8316680;28;20256;-71
2021/08/08 09:15:16;;;;;;;3.80;1.37;;;;;;;24.67;42.28;97637.91;8316761;28;20387;-71
2021/08/08 09:19:22;;;;;;;3.40;1.20;;;;;;;24.45;42.29;97626.16;8316408;28;20241;-71
2021/08/08 09:23:35;;;;;;;2.30;1.10;;;;;;;24.23;43.30;97643.47;8316790;28;20208;-70
2021/08/08 09:27:39;;;;;;;6.30;1.60;;;;;;;24.28;41.74;97646.47;8318062;28;20504;-70
2021/08/08 09:31:44;;;;;;;4.30;1.37;;;;;;;24.48;41.12;97639.84;8322861;28;20233;-71
2021/08/08 09:35:51;;;;;;;3.77;1.03;;;;;;;24.67;40.24;97644.03;8322827;28;20279;-71
2021/08/08 09:39:55;;;;;;;9.40;1.50;;;;;;;25.31;40.06;97638.06;8322670;28;20367;-70
2021/08/08 09:44:06;;;;;;;3.63;1.27;;;;;;;25.62;39.30;97637.28;8313452;28;20201;-70
2021/08/08 09:48:12;;;;;;;2.87;1.03;;;;;;;25.33;38.33;97636.06;8312757;28;20197;-71
2021/08/08 09:52:21;;;;;;;2.67;1.13;;;;;;;23.63;41.22;97642.59;8322077;28;20230;-72
2021/08/08 09:56:24;;;;;;;2.23;1.00;;;;;;;23.09;42.68;97661.25;8321804;28;20222;-71
2021/08/08 10:00:29;;;;;;;4.03;1.20;;;;;;;24.92;39.97;97647.53;8321914;28;20394;-71
2021/08/08 10:04:34;;;;;;;3.77;1.20;;;;;;;24.67;40.83;97649.31;8322054;28;20201;-71
2021/08/08 10:08:37;;;;;;;3.07;1.10;;;;;;;25.81;38.45;97641.34;8321621;28;20201;-72
2021/08/08 10:13:10;;;;;;;5.20;1.30;;;;;;;25.90;37.17;97657.06;8321559;28;20558;-72
2021/08/08 10:17:14;;;;;;;5.77;1.40;;;;;;;25.81;37.94;97654.63;8319621;28;20203;-72
2021/08/08 10:21:18;;;;;;;2.63;1.10;;;;;;;26.31;35.98;97638.31;8321368;28;20235;-72
2021/08/08 10:25:21;;;;;;;3.03;1.53;;;;;;;25.38;36.22;97623.13;8321309;28;20206;-71
2021/08/08 10:29:24;;;;;;;3.47;1.10;;;;;;;24.69;38.92;97631.44;8321109;28;20317;-71
2021/08/08 10:33:27;;;;;;;3.63;1.20;;;;;;;24.56;40.10;97636.41;8317057;28;20506;-72
2021/08/08 10:37:31;;;;;;;3.60;1.40;;;;;;;25.52;39.20;97637.50;8307335;28;20201;-71
2021/08/08 10:41:34;;;;;;;3.60;1.20;;;;;;;25.80;38.24;97635.25;8320557;28;20215;-71
2021/08/08 10:45:39;;;;;;;4.73;1.53;;;;;;;25.45;39.83;97639.16;8320093;28;20226;-71
2021/08/08 10:49:42;;;;;;;5.87;1.53;;;;;;;24.73;40.73;97637.25;8320253;28;20496;-69
2021/08/08 10:53:46;;;;;;;4.97;1.80;;;;;;;24.56;40.62;97637.25;8320145;28;20488;-69
2021/08/08 10:57:49;;;;;;;3.63;1.43;;;;;;;24.38;42.22;97644.47;8319491;28;20235;-70
2021/08/08 11:02:07;;;;;;;6.07;1.67;;;;;;;24.27;42.93;97635.03;8320006;28;20206;-69
2021/08/08 11:06:20;;;;;;;3.30;1.17;;;;;;;24.55;41.74;97627.66;8319531;28;20206;-69
2021/08/08 11:10:27;;;;;;;5.17;1.93;;;;;;;24.48;41.13;97641.69;8305328;28;20315;-69
2021/08/08 11:14:31;;;;;;;4.60;1.20;;;;;;;24.15;41.68;97639.81;8286747;28;20215;-69
2021/08/08 11:18:34;;;;;;;5.47;1.30;;;;;;;23.94;41.78;97639.44;8286369;28;20246;-69
2021/08/08 11:22:37;;;;;;;3.33;1.30;;;;;;;23.76;42.49;97642.97;8286456;28;20386;-69
2021/08/08 11:26:41;;;;;;;4.90;1.40;;;;;;;23.54;41.59;97635.59;8286284;28;20217;-69
2021/08/08 11:30:45;;;;;;;2.77;1.30;;;;;;;23.93;41.89;97643.91;8285732;28;20253;-69
2021/08/08 11:34:59;;;;;;;2.67;1.40;;;;;;;23.77;43.55;97647.25;8286028;28;20202;-70
2021/08/08 11:39:05;;;;;;;4.00;1.40;;;;;;;23.65;42.69;97647.72;8285762;28;20202;-69
2021/08/08 11:43:09;;;;;;;4.73;1.50;;;;;;;23.69;42.86;97651.69;8285432;28;20476;-68
2021/08/08 11:47:12;;;;;;;4.40;1.20;;;;;;;24.03;41.86;97648.19;8285266;28;20390;-68
2021/08/08 11:51:19;;;;;;;7.43;1.60;;;;;;;23.99;42.15;97655.66;8284565;28;20225;-68
2021/08/08 11:55:22;;;;;;;2.57;1.27;;;;;;;24.07;42.43;97654.84;8305485;28;20228;-68
2021/08/08 11:59:27;;;;;;;7.13;1.63;;;;;;;23.47;43.16;97658.34;8317528;28;20209;-68
2021/08/08 12:03:32;;;;;;;3.53;1.27;;;;;;;23.23;41.90;97652.78;8317899;28;20213;-69
2021/08/08 12:07:35;;;;;;;3.03;1.30;;;;;;;23.04;43.58;97668.81;8317584;28;20392;-69
2021/08/08 12:11:48;;;;;;;2.50;1.10;;;;;;;22.99;44.34;97666.59;8319093;28;20239;-69
2021/08/08 12:15:52;;;;;;;5.47;1.40;;;;;;;22.99;43.17;97676.34;8317440;28;20207;-68
2021/08/08 12:19:57;;;;;;;3.30;1.30;;;;;;;23.28;42.64;97678.72;8317351;28;20454;-68
2021/08/08 12:24:05;;;;;;;3.13;1.30;;;;;;;24.19;41.36;97674.69;8316983;28;20279;-68
2021/08/08 12:28:08;;;;;;;5.00;1.17;;;;;;;24.45;38.95;97679.06;8316897;28;20197;-68
2021/08/08 12:32:16;;;;;;;3.23;1.50;;;;;;;24.27;37.72;97682.66;8317076;28;20228;-68
2021/08/08 12:36:19;;;;;;;5.27;0.93;;;;;;;24.06;38.90;97679.63;8317086;28;20211;-68
2021/08/08 12:40:23;;;;;;;3.00;1.10;;;;;;;23.83;39.47;97668.81;8316656;28;20205;-68
2021/08/08 12:44:34;;;;;;;4.73;1.70;;;;;;;23.64;39.14;97673.31;8316824;28;20201;-68
2021/08/08 12:48:38;;;;;;;5.33;1.60;;;;;;;23.75;41.28;97675.66;8307809;28;20214;-70
2021/08/08 12:52:41;;;;;;;3.83;1.20;;;;;;;23.98;42.34;97697.13;8283607;28;20256;-66
2021/08/08 12:56:44;;;;;;;3.80;1.37;;;;;;;23.56;40.92;97684.66;8303731;28;20221;-66
2021/08/08 13:00:47;;;;;;;2.87;1.33;;;;;;;23.16;41.74;97704.56;8310252;28;20212;-66
2021/08/08 13:04:51;;;;;;;4.83;1.30;;;;;;;22.77;42.38;97718.09;8306530;28;20196;-66
2021/08/08 13:08:54;;;;;;;12.23;1.93;;;;;;;22.40;48.07;97745.41;8302116;28;20414;-66
2021/08/08 13:12:57;;;;;;;9.30;5.30;;;;;;;22.35;47.77;97720.44;8305967;28;20225;-66
2021/08/08 13:16:59;;;;;;;12.27;7.67;;;;;;;22.53;51.43;97728.41;8305812;28;20214;-66
2021/08/08 13:21:04;;;;;;;9.50;4.23;;;;;;;23.02;52.22;97715.66;8305617;28;20236;-67
2021/08/08 13:25:08;;;;;;;7.70;3.27;;;;;;;23.13;52.16;97718.09;8302928;28;20216;-66
2021/08/08 13:29:11;;;;;;;6.87;3.13;;;;;;;23.47;50.58;97711.19;8290110;28;20482;-66
2021/08/08 13:33:14;;;;;;;5.30;2.20;;;;;;;23.93;49.26;97715.28;8289659;28;20229;-66
2021/08/08 13:37:18;;;;;;;9.60;3.37;;;;;;;23.82;49.12;97718.22;8295126;28;20193;-66
2021/08/08 13:41:21;;;;;;;6.33;2.93;;;;;;;24.28;49.33;97723.19;8305849;28;20205;-66
2021/08/08 13:45:24;;;;;;;4.73;2.00;;;;;;;24.35;48.51;97721.53;8305026;28;20197;-65
2021/08/08 13:49:27;;;;;;;6.73;3.90;;;;;;;23.47;47.49;97712.03;8304242;28;20204;-65
2021/08/08 13:53:31;;;;;;;7.53;4.43;;;;;;;23.41;48.39;97720.56;8304044;28;20229;-66
2021/08/08 13:57:34;;;;;;;8.00;3.97;;;;;;;23.22;49.63;97725.06;8302150;28;20228;-65
2021/08/08 14:01:37;;;;;;;11.37;5.97;;;;;;;23.46;49.43;97744.72;8306620;28;20212;-66
2021/08/08 14:05:40;;;;;;;4.70;2.80;;;;;;;23.48;49.32;97763.91;8304497;28;20211;-66
2021/08/08 14:09:45;;;;;;;7.73;4.50;;;;;;;23.06;50.34;97771.66;8304033;28;20193;-66
2021/08/08 14:13:48;;;;;;;13.87;5.83;;;;;;;22.93;52.29;97772.00;8306799;28;20426;-66
2021/08/08 14:17:50;;;;;;;9.63;5.63;;;;;;;22.57;53.28;97777.25;8320571;28;20213;-65
2021/08/08 14:21:54;;;;;;;11.00;4.20;;;;;;;22.71;51.95;97768.00;8320452;28;20240;-65
2021/08/08 14:25:59;;;;;;;11.63;4.27;;;;;;;22.86;51.14;97773.59;8319958;28;20205;-66
2021/08/08 14:30:02;;;;;;;5.07;3.10;;;;;;;23.09;51.37;97768.72;8306951;28;20208;-66
2021/08/08 14:34:05;;;;;;;7.73;4.43;;;;;;;23.82;49.05;97765.81;8302831;28;20540;-67
2021/08/08 14:38:08;;;;;;;8.80;4.60;;;;;;;23.88;48.27;97757.25;8302690;28;20194;-67
2021/08/08 14:42:13;;;;;;;9.50;3.00;;;;;;;23.97;47.62;97731.66;8302612;28;20209;-67
2021/08/08 14:46:15;;;;;;;9.23;3.43;;;;;;;24.32;46.50;97749.16;8309855;28;20200;-67
2021/08/08 14:50:18;;;;;;;8.30;3.10;;;;;;;24.04;46.48;97753.84;8287091;28;20225;-66
2021/08/08 14:54:21;;;;;;;7.07;2.23;;;;;;;24.13;44.59;97763.47;8299319;28;20237;-66
2021/08/08 14:58:26;;;;;;;7.20;2.53;;;;;;;23.94;45.24;97764.53;8319335;28;20201;-66
2021/08/08 15:02:28;;;;;;;5.20;1.53;;;;;;;23.71;44.92;97764.22;8319751;28;20205;-65
2021/08/08 15:06:32;;;;;;;4.27;1.60;;;;;;;24.12;45.18;97766.25;8319102;28;20200;-66
2021/08/08 15:10:35;;;;;;;3.03;1.40;;;;;;;24.24;44.43;97765.00;8318928;28;20202;-68
2021/08/08 15:14:39;;;;;;;4.10;1.77;;;;;;;24.30;44.10;97764.38;8318844;28;20257;-68
2021/08/08 15:18:42;;;;;;;6.37;1.40;;;;;;;24.02;43.05;97776.16;8319358;28;20265;-68
2021/08/08 15:22:45;;;;;;;3.43;1.47;;;;;;;23.74;42.68;97785.06;8318916;28;20206;-68
2021/08/08 15:26:48;;;;;;;4.23;1.40;;;;;;;23.63;41.14;97777.38;8318064;28;20212;-68
2021/08/08 15:30:52;;;;;;;7.67;1.50;;;;;;;23.62;42.27;97779.19;8318566;28;20209;-68
2021/08/08 15:34:55;;;;;;;3.70;1.20;;;;;;;23.65;41.69;97790.47;8318744;28;20235;-69
2021/08/08 15:38:58;;;;;;;5.97;1.30;;;;;;;23.66;40.25;97795.56;8318220;28;20208;-68
2021/08/08 15:43:01;;;;;;;2.83;1.20;;;;;;;23.34;40.30;97801.44;8318659;28;20528;-68
2021/08/08 15:47:06;;;;;;;2.33;1.07;;;;;;;23.43;40.13;97787.31;8318215;28;20216;-67
2021/08/08 15:51:09;;;;;;;1.60;1.00;;;;;;;23.16;40.12;97791.72;8318256;28;20223;-68
2021/08/08 15:55:12;;;;;;;4.40;1.00;;;;;;;23.34;40.04;97793.50;8317691;28;20233;-68
2021/08/08 15:59:16;;;;;;;3.23;1.03;;;;;;;23.18;38.43;97791.56;8305014;28;20204;-68
2021/08/08 16:03:22;;;;;;;3.93;1.10;;;;;;;22.82;38.14;97795.00;8300599;28;20223;-68
2021/08/08 16:07:25;;;;;;;3.43;1.13;;;;;;;22.86;38.53;97802.63;8292385;28;20563;-66
2021/08/08 16:11:28;;;;;;;3.23;1.10;;;;;;;22.71;39.03;97810.22;8306681;28;20240;-67
2021/08/08 16:15:32;;;;;;;2.53;1.07;;;;;;;22.72;39.90;97822.44;8297008;28;20525;-67
2021/08/08 16:19:37;;;;;;;3.43;1.20;;;;;;;22.87;39.90;97814.88;8292100;28;20416;-70
2021/08/08 16:23:40;;;;;;;3.40;1.10;;;;;;;22.90;39.38;97812.72;8299768;28;20203;-69
2021/08/08 16:27:43;;;;;;;3.87;1.33;;;;;;;22.84;39.16;97827.34;8299702;28;20203;-69
2021/08/08 16:31:46;;;;;;;2.83;1.10;;;;;;;23.00;39.82;97818.78;8299419;28;20203;-69
2021/08/08 16:35:51;;;;;;;3.23;1.00;;;;;;;22.99;40.20;97821.56;8299151;28;20225;-70
2021/08/08 16:39:54;;;;;;;3.63;1.20;;;;;;;22.70;41.10;97830.50;8299398;28;20370;-71
2021/08/08 16:43:57;;;;;;;4.03;1.30;;;;;;;22.71;41.57;97840.06;8299340;28;20297;-71
2021/08/08 16:48:00;;;;;;;3.90;1.07;;;;;;;22.75;40.82;97836.19;8299382;28;20197;-68
2021/08/08 16:52:05;;;;;;;2.80;1.17;;;;;;;22.71;39.56;97833.97;8299866;28;20312;-68
2021/08/08 16:56:08;;;;;;;4.40;1.17;;;;;;;22.70;40.85;97835.78;8300434;28;20217;-67
2021/08/08 17:00:12;;;;;;;4.30;1.23;;;;;;;22.56;39.63;97838.91;8299107;28;20538;-67
2021/08/08 17:04:15;;;;;;;4.00;1.47;;;;;;;22.58;41.09;97844.88;8299367;28;20387;-67
2021/08/08 17:08:20;;;;;;;6.73;1.43;;;;;;;22.49;41.62;97849.25;8299097;28;20212;-66
2021/08/08 17:12:26;;;;;;;5.57;1.27;;;;;;;22.44;41.72;97860.22;8298947;28;20224;-65
2021/08/08 17:16:29;;;;;;;6.90;1.50;;;;;;;22.40;40.88;97858.84;8298813;28;20260;-66
2021/08/08 17:20:32;;;;;;;3.77;1.30;;;;;;;22.39;41.70;97870.38;8295332;28;20229;-66
2021/08/08 17:24:36;;;;;;;5.93;1.40;;;;;;;22.14;43.07;97876.25;8298752;28;20348;-66
2021/08/08 17:28:39;;;;;;;2.83;1.43;;;;;;;22.24;42.62;97880.53;8298749;28;20467;-66
2021/08/08 17:32:42;;;;;;;4.40;1.40;;;;;;;22.22;42.93;97881.66;8294181;28;20217;-65
2021/08/08 17:36:45;;;;;;;8.43;1.40;;;;;;;22.18;42.63;97894.31;8298698;28;20399;-66
2021/08/08 17:40:49;;;;;;;5.43;1.40;;;;;;;22.12;42.32;97894.84;8298515;28;20193;-66
2021/08/08 17:44:52;;;;;;;5.20;1.73;;;;;;;21.96;43.89;97897.28;8297707;28;20202;-66
2021/08/08 17:48:55;;;;;;;3.70;1.30;;;;;;;21.83;43.21;97908.94;8299994;28;20392;-68
2021/08/08 17:52:58;;;;;;;5.07;1.67;;;;;;;21.86;44.15;97913.09;8315366;28;20224;-67
2021/08/08 17:57:03;;;;;;;3.00;1.30;;;;;;;21.85;43.81;97919.34;8299844;28;20551;-66
2021/08/08 18:01:06;;;;;;;4.87;1.30;;;;;;;21.61;43.55;97927.66;8315645;28;20422;-65
2021/08/08 18:05:10;;;;;;;5.80;1.70;;;;;;;21.62;44.51;97931.97;8328063;28;20232;-72
2021/08/08 18:09:13;;;;;;;3.43;1.60;;;;;;;21.55;44.59;97939.63;8349347;28;20212;-73
2021/08/08 18:13:17;;;;;;;4.27;1.60;;;;;;;21.59;45.06;97963.84;8348926;28;20230;-72
2021/08/08 18:17:20;;;;;;;4.83;1.67;;;;;;;21.34;44.20;97963.38;8353647;28;20207;-71
2021/08/08 18:21:23;;;;;;;3.50;1.50;;;;;;;21.15;45.96;97987.88;8348386;28;20224;-72
2021/08/08 18:25:27;;;;;;;5.27;1.80;;;;;;;20.87;47.15;97986.81;8353565;28;20213;-72
2021/08/08 18:29:31;;;;;;;3.67;1.77;;;;;;;20.72;48.01;97983.69;8342553;28;20208;-72
2021/08/08 18:33:34;;;;;;;3.07;1.57;;;;;;;20.66;48.08;97992.13;8320276;28;20236;-72
2021/08/08 18:37:36;;;;;;;3.97;1.60;;;;;;;20.88;48.14;97996.38;8324614;28;20520;-73
2021/08/08 18:41:40;;;;;;;3.63;1.50;;;;;;;20.86;48.68;98003.56;8320070;28;20233;-72
2021/08/08 18:45:45;;;;;;;3.87;1.67;;;;;;;20.82;49.01;98008.25;8319938;28;20210;-73
2021/08/08 18:49:48;;;;;;;4.57;1.70;;;;;;;20.73;49.88;98003.78;8319689;28;20210;-73
2021/08/08 18:53:51;;;;;;;5.03;1.70;;;;;;;20.69;49.92;98007.63;8319519;28;20297;-74
2021/08/08 18:57:54;;;;;;;3.73;1.53;;;;;;;20.67;50.24;98012.19;8319416;28;20201;-73
2021/08/08 19:01:58;;;;;;;4.83;1.90;;;;;;;20.59;50.58;98017.25;8319162;28;20210;-73
2021/08/08 19:06:02;;;;;;;5.80;1.53;;;;;;;20.53;51.25;98023.03;8319219;28;20267;-71
2021/08/08 19:10:06;;;;;;;4.87;1.77;;;;;;;20.47;51.28;98024.38;8319152;28;20308;-72